Terminal Aerodrome Forecast
Issued by NWS

Home | Current Version | Previous Version | Graphics & Text | Print | Product List | Glossary On
Versions: 1 2 3 4 5 6 7 8 9 10 11 12 13 14 15 16 17 18 19
000
FTUS43 KABR 281726
TAFPIR
TAF
KPIR 281726Z 2818/2918 02008KT P6SM OVC011
     FM282300 05008KT P6SM OVC025
     FM290200 05007KT P6SM OVC035
     FM291000 VRB03KT P6SM OVC010
      TEMPO 2910/2914 2SM BR
     FM291600 08009KT P6SM OVC015=

USA.gov is the U.S. government's official web portal to all federal, state and local government web resources and services.